Acton, California
Current Conditions -  °F | °C
As of 1:53 AM on Monday 22 Dec 2014 (Local Time) from KPMD Reporting Station
Clear Clear  
Wind Chill: 11°   Ceiling: Unl
Heat Index: 11°   Visibility: 10mi
Dew Point:   Wind: 12mph
Humidity: 80%   Direction: 300°WNW
Pressure: 30.18"   Gusts: NA
Location:  34.47°N, 118.2°W
Report Text: KPMD 220953Z AUTO 30010KT 10SM CLR 11/07 A3018 RMK AO2 SLP208 T01060072
Loading
Personal Weather Stations






























Interactive Weather Map New forecast layout! Learn more

10-Day Weather Forecast

Advertisements
Track Severe Weather on mobile